Time;durP1;ratioP1;P1;durP2;ratioP2;P2;SDS_P1;SDS_P2;PMS_P1;PMS_P2;Temp;Humidity;BMP_temperature;BMP_pressure;BME280_temperature;BME280_humidity;BME280_pressure;Samples;Min_cycle;Max_cycle;Signal;HPM_P1;HPM_P2
2022/06/23 00:00:29;;;;;;;9.55;3.22;;;18.30;99.90;;;;;;5067639;28;20051;-66
2022/06/23 00:02:57;;;;;;;9.52;2.90;;;18.30;99.90;;;;;;5068393;28;20040;-65
2022/06/23 00:05:26;;;;;;;10.98;3.35;;;18.30;99.90;;;;;;5068051;28;20033;-65
2022/06/23 00:07:56;;;;;;;14.43;3.17;;;18.20;99.90;;;;;;5071470;28;20024;-67
2022/06/23 00:10:38;;;;;;;13.88;3.00;;;18.10;99.90;;;;;;5084143;28;20369;-66
2022/06/23 00:13:34;;;;;;;11.75;2.70;;;18.00;99.90;;;;;;5073029;28;20047;-65
2022/06/23 00:16:01;;;;;;;10.55;3.40;;;17.90;99.90;;;;;;5082029;28;20106;-66
2022/06/23 00:18:32;;;;;;;7.72;3.33;;;17.90;99.90;;;;;;5079515;28;20055;-66
2022/06/23 00:21:24;;;;;;;12.85;3.58;;;17.90;99.90;;;;;;5068661;28;20461;-65
2022/06/23 00:23:59;;;;;;;10.00;3.40;;;17.90;99.90;;;;;;5081905;28;20036;-65
2022/06/23 00:26:27;;;;;;;9.40;3.50;;;17.90;99.90;;;;;;5074175;28;20040;-66
2022/06/23 00:29:06;;;;;;;19.48;4.07;;;17.90;99.90;;;;;;5067931;28;20135;-65
2022/06/23 00:31:39;;;;;;;11.68;3.33;;;18.00;99.90;;;;;;5067017;28;20060;-65
2022/06/23 00:34:13;;;;;;;15.85;4.38;;;18.00;99.90;;;;;;5067820;28;20037;-66
2022/06/23 00:36:48;;;;;;;15.85;4.97;;;18.00;99.90;;;;;;5068149;28;20029;-65
2022/06/23 00:39:22;;;;;;;13.10;4.30;;;18.00;99.90;;;;;;5082567;28;20044;-65
2022/06/23 00:41:48;;;;;;;15.25;4.78;;;18.10;99.90;;;;;;5078368;28;20117;-65
2022/06/23 00:44:42;;;;;;;16.55;4.55;;;18.10;99.90;;;;;;5070189;28;20572;-67
2022/06/23 00:47:17;;;;;;;16.80;4.97;;;18.10;99.90;;;;;;5072805;28;20044;-65
2022/06/23 00:50:21;;;;;;;15.68;5.15;;;18.20;99.90;;;;;;5087937;28;20071;-65
2022/06/23 00:53:01;;;;;;;16.92;5.95;;;18.20;99.90;;;;;;5056103;28;20040;-65
2022/06/23 00:55:57;;;;;;;15.43;5.03;;;18.30;99.90;;;;;;5066202;28;20020;-65
2022/06/23 00:58:47;;;;;;;12.93;5.50;;;18.30;99.90;;;;;;5067474;28;20044;-65
2022/06/23 01:01:29;;;;;;;14.30;4.67;;;18.30;99.90;;;;;;5090361;28;20046;-66
2022/06/23 01:04:06;;;;;;;13.45;5.47;;;18.30;99.90;;;;;;5072024;28;20085;-65
2022/06/23 01:06:41;;;;;;;14.00;5.22;;;18.20;99.90;;;;;;5070750;28;20020;-65
2022/06/23 01:10:05;;;;;;;13.82;5.18;;;18.10;99.90;;;;;;5071374;28;20369;-66
2022/06/23 01:12:44;;;;;;;15.75;5.43;;;18.00;99.90;;;;;;5017030;28;20038;-65
2022/06/23 01:15:25;;;;;;;12.97;5.20;;;18.00;99.90;;;;;;5091990;28;20028;-66
2022/06/23 01:18:17;;;;;;;12.60;5.00;;;18.00;99.90;;;;;;5072598;28;21119;-66
2022/06/23 01:20:46;;;;;;;13.93;5.18;;;17.90;99.90;;;;;;5071808;28;20024;-65
2022/06/23 01:23:23;;;;;;;15.75;5.20;;;17.90;99.90;;;;;;5070868;28;20043;-66
2022/06/23 01:26:00;;;;;;;10.18;4.55;;;17.90;99.90;;;;;;5071629;28;20021;-65
2022/06/23 01:28:30;;;;;;;13.45;6.00;;;17.90;99.90;;;;;;5070348;28;20039;-66
2022/06/23 01:31:05;;;;;;;11.73;5.00;;;17.90;99.90;;;;;;5073783;28;20036;-67
2022/06/23 01:33:50;;;;;;;13.57;5.07;;;17.90;99.90;;;;;;5085612;28;20060;-65
2022/06/23 01:36:41;;;;;;;14.80;4.93;;;17.80;99.90;;;;;;5070333;28;20032;-66
2022/06/23 01:39:21;;;;;;;;;;;17.80;99.90;;;;;;5071375;28;20033;-66
2022/06/23 01:41:56;;;;;;;9.82;4.30;;;17.80;99.90;;;;;;5070785;28;19908;-66
2022/06/23 01:44:40;;;;;;;12.23;5.53;;;17.90;99.90;;;;;;5071148;28;20047;-66
2022/06/23 01:47:34;;;;;;;12.98;5.15;;;17.90;99.90;;;;;;5074830;28;20555;-66
2022/06/23 01:50:23;;;;;;;11.60;4.80;;;17.90;99.90;;;;;;5071233;28;20028;-67
2022/06/23 01:53:02;;;;;;;11.27;4.95;;;17.90;99.90;;;;;;5070746;28;20028;-66
2022/06/23 01:55:50;;;;;;;13.32;5.28;;;17.80;99.90;;;;;;5069973;28;20032;-66
2022/06/23 01:58:20;;;;;;;12.27;4.75;;;17.80;99.90;;;;;;5071778;28;20172;-67
2022/06/23 02:00:50;;;;;;;14.47;5.13;;;17.80;99.90;;;;;;5070068;28;20037;-66
2022/06/23 02:03:32;;;;;;;13.98;5.10;;;17.80;99.90;;;;;;5070128;28;20021;-67
2022/06/23 02:06:41;;;;;;;14.50;5.40;;;17.70;99.90;;;;;;5070709;28;20040;-66
2022/06/23 02:09:19;;;;;;;13.23;5.25;;;17.70;99.90;;;;;;5065359;28;20048;-66
2022/06/23 02:11:51;;;;;;;13.25;5.30;;;17.70;99.90;;;;;;5073805;28;20036;-67
2022/06/23 02:14:28;;;;;;;11.75;5.35;;;17.80;99.90;;;;;;5097646;28;20154;-67
2022/06/23 02:17:17;;;;;;;13.23;5.18;;;17.80;99.90;;;;;;5086906;28;20054;-67
2022/06/23 02:19:56;;;;;;;12.95;5.13;;;17.70;99.90;;;;;;5069755;28;20160;-67
2022/06/23 02:22:31;;;;;;;16.05;5.20;;;17.70;99.90;;;;;;5069091;28;20020;-66
2022/06/23 02:25:15;;;;;;;13.95;6.15;;;17.70;99.90;;;;;;5070072;28;20033;-66
2022/06/23 02:27:47;;;;;;;12.13;5.85;;;17.70;99.90;;;;;;5071584;28;20028;-66
2022/06/23 02:30:33;;;;;;;15.50;5.65;;;17.60;99.90;;;;;;5086247;28;20536;-66
2022/06/23 02:33:04;;;;;;;10.73;5.90;;;17.60;99.90;;;;;;5069741;28;20461;-66
2022/06/23 02:35:51;;;;;;;15.68;6.30;;;17.60;99.90;;;;;;5069149;28;20028;-66
2022/06/23 02:38:29;;;;;;;12.10;5.60;;;17.60;99.90;;;;;;5073282;28;20511;-68
2022/06/23 02:41:03;;;;;;;15.50;6.25;;;17.70;99.90;;;;;;5070039;28;20700;-66
2022/06/23 02:43:44;;;;;;;13.75;6.10;;;17.60;99.90;;;;;;5068803;28;20029;-66
2022/06/23 02:46:32;;;;;;;18.20;6.35;;;17.60;99.90;;;;;;5069892;28;20033;-66
2022/06/23 02:49:19;;;;;;;11.23;6.03;;;17.60;99.90;;;;;;5077663;28;20032;-66
2022/06/23 02:52:06;;;;;;;14.25;6.72;;;17.70;99.90;;;;;;5074380;28;20459;-66
2022/06/23 02:54:36;;;;;;;16.20;6.05;;;17.70;99.90;;;;;;5069249;28;20036;-66
2022/06/23 02:57:10;;;;;;;12.57;5.53;;;17.70;99.90;;;;;;5068327;28;20067;-66
2022/06/23 02:59:50;;;;;;;14.63;5.88;;;17.70;99.90;;;;;;5069082;28;20512;-66
2022/06/23 03:02:41;;;;;;;14.57;5.60;;;17.60;99.90;;;;;;5068853;28;20032;-67
2022/06/23 03:05:35;;;;;;;12.48;6.15;;;17.50;99.90;;;;;;5069307;28;20063;-66
2022/06/23 03:08:39;;;;;;;15.10;5.80;;;17.50;99.90;;;;;;5079019;28;20028;-66
2022/06/23 03:11:51;;;;;;;14.18;6.25;;;17.50;99.90;;;;;;5037484;28;20712;-66
2022/06/23 03:14:17;;;;;;;12.70;5.75;;;17.50;99.90;;;;;;5087245;28;20028;-66
2022/06/23 03:16:49;;;;;;;15.23;5.95;;;17.50;99.90;;;;;;5083891;28;20017;-66
2022/06/23 03:19:41;;;;;;;14.48;6.10;;;17.50;99.90;;;;;;5069039;28;20300;-66
2022/06/23 03:22:36;;;;;;;17.70;6.47;;;17.50;99.90;;;;;;5069547;28;20059;-66
2022/06/23 03:25:02;;;;;;;13.07;6.18;;;17.40;99.90;;;;;;5065160;28;20040;-66
2022/06/23 03:27:42;;;;;;;12.23;5.90;;;17.40;99.90;;;;;;5068288;28;20033;-66
2022/06/23 03:30:35;;;;;;;12.98;6.85;;;17.40;99.90;;;;;;5088940;28;20583;-66
2022/06/23 03:33:24;;;;;;;12.95;6.13;;;17.40;99.90;;;;;;5071869;28;20033;-66
2022/06/23 03:35:55;;;;;;;13.73;5.82;;;17.40;99.90;;;;;;5038274;28;20068;-66
2022/06/23 03:41:37;;;;;;;18.15;7.05;;;17.40;99.90;;;;;;5067743;28;20035;-66
2022/06/23 03:44:16;;;;;;;20.88;7.47;;;17.30;99.90;;;;;;5069162;28;20032;-66
2022/06/23 03:47:17;;;;;;;18.60;6.85;;;17.30;99.90;;;;;;5071943;28;20587;-66
2022/06/23 03:49:54;;;;;;;17.75;7.43;;;17.30;99.90;;;;;;5081275;28;20042;-66
2022/06/23 03:52:37;;;;;;;17.45;6.82;;;17.30;99.90;;;;;;5088911;28;20032;-67
2022/06/23 03:55:23;;;;;;;15.43;7.32;;;17.20;99.90;;;;;;5090427;28;20036;-66
2022/06/23 03:58:00;;;;;;;18.25;8.13;;;17.30;99.90;;;;;;5088360;28;20114;-66
2022/06/23 04:00:25;;;;;;;15.23;7.50;;;17.30;99.90;;;;;;5088467;28;20046;-67
2022/06/23 04:03:17;;;;;;;12.88;6.80;;;17.30;99.90;;;;;;5087477;28;20028;-66
2022/06/23 04:05:55;;;;;;;16.65;6.95;;;17.30;99.90;;;;;;5081903;28;20031;-66
2022/06/23 04:08:32;;;;;;;14.80;6.47;;;17.40;99.90;;;;;;5088123;28;20039;-67
2022/06/23 04:11:43;;;;;;;14.88;7.15;;;17.40;99.90;;;;;;5088944;28;20032;-66
2022/06/23 04:13:53;;;;;;;19.45;7.18;;;17.50;99.90;;;;;;5087505;28;20122;-66
2022/06/23 04:16:23;;;;;;;14.52;6.65;;;17.60;99.90;;;;;;5088699;28;20020;-66
2022/06/23 04:18:50;;;;;;;151.88;7.20;;;17.60;99.90;;;;;;5088947;28;20024;-65
2022/06/23 04:21:24;;;;;;;7.18;4.70;;;17.60;99.90;;;;;;5090237;28;20035;-66
2022/06/23 04:23:54;;;;;;;12.80;4.88;;;17.60;99.90;;;;;;5075534;28;20035;-66
2022/06/23 04:26:46;;;;;;;15.25;4.95;;;17.60;99.90;;;;;;5068538;28;20041;-66
2022/06/23 04:29:28;;;;;;;12.32;5.60;;;17.60;99.90;;;;;;5082371;28;20048;-66
2022/06/23 04:32:21;;;;;;;9.95;5.20;;;17.60;99.90;;;;;;5078734;28;20028;-66
2022/06/23 04:34:52;;;;;;;20.58;6.72;;;17.70;99.90;;;;;;5064853;28;20036;-66
2022/06/23 04:37:33;;;;;;;13.90;6.65;;;17.80;99.90;;;;;;5082628;28;20480;-67
2022/06/23 04:40:02;;;;;;;;;;;18.00;99.90;;;;;;5107968;28;20437;-66
2022/06/23 04:42:28;;;;;;;14.83;7.60;;;18.10;99.90;;;;;;5083024;28;19912;-66
2022/06/23 04:45:16;;;;;;;18.60;6.15;;;18.30;99.90;;;;;;5072418;28;20020;-66
2022/06/23 04:47:42;;;;;;;10.73;5.07;;;18.50;99.90;;;;;;5072157;28;20930;-67
2022/06/23 04:50:40;;;;;;;10.88;6.25;;;18.60;99.90;;;;;;5071564;28;20059;-66
2022/06/23 04:53:06;;;;;;;17.13;5.60;;;18.60;99.90;;;;;;5071125;28;20484;-66
2022/06/23 04:55:34;;;;;;;15.60;5.65;;;18.70;99.90;;;;;;5074315;28;20044;-67
2022/06/23 04:58:14;;;;;;;12.45;5.30;;;18.80;99.90;;;;;;5071293;28;20044;-67
2022/06/23 05:00:49;;;;;;;14.50;6.00;;;19.00;99.90;;;;;;5070996;28;20104;-67
2022/06/23 05:03:35;;;;;;;12.23;5.78;;;19.10;99.90;;;;;;5071734;28;20111;-67
2022/06/23 05:06:09;;;;;;;10.93;5.95;;;19.20;99.90;;;;;;5071619;28;20039;-66
2022/06/23 05:08:40;;;;;;;11.13;5.75;;;19.30;99.90;;;;;;5070642;28;20060;-66
2022/06/23 05:11:22;;;;;;;11.48;5.90;;;19.50;99.90;;;;;;5072552;28;20211;-66
2022/06/23 05:13:57;;;;;;;17.27;5.90;;;19.60;99.90;;;;;;5071234;28;20023;-66
2022/06/23 05:16:36;;;;;;;13.88;6.32;;;19.80;99.90;;;;;;5072675;28;20024;-67
2022/06/23 05:19:12;;;;;;;16.25;6.50;;;19.90;99.90;;;;;;5071207;28;20040;-66
2022/06/23 05:21:44;;;;;;;19.67;6.65;;;19.90;99.90;;;;;;5078085;28;20081;-66
2022/06/23 05:24:21;;;;;;;12.23;6.57;;;20.00;99.90;;;;;;5078910;28;20021;-66
2022/06/23 05:26:49;;;;;;;16.38;7.65;;;20.20;99.90;;;;;;5073284;28;20098;-66
2022/06/23 05:29:23;;;;;;;17.13;7.65;;;20.30;99.90;;;;;;5080110;28;20197;-67
2022/06/23 05:31:57;;;;;;;18.15;8.88;;;20.20;99.90;;;;;;5069159;28;20562;-66
2022/06/23 05:34:29;;;;;;;15.70;8.45;;;20.30;99.90;;;;;;5070544;28;20036;-66
2022/06/23 05:37:16;;;;;;;19.58;8.77;;;20.40;99.90;;;;;;5069986;28;20060;-66
2022/06/23 05:39:47;;;;;;;21.50;10.77;;;20.60;99.90;;;;;;5068917;28;20072;-67
2022/06/23 05:42:22;;;;;;;22.10;9.85;;;20.60;99.90;;;;;;5068383;28;20036;-66
2022/06/23 05:45:00;;;;;;;28.70;10.30;;;20.60;99.90;;;;;;5069407;28;20023;-66
2022/06/23 05:47:31;;;;;;;20.48;9.13;;;20.80;99.90;;;;;;5082858;28;20060;-67
2022/06/23 05:50:00;;;;;;;25.65;11.40;;;20.90;99.90;;;;;;5069871;28;20376;-66
2022/06/23 05:52:32;;;;;;;19.90;11.98;;;20.90;99.90;;;;;;5083688;28;20074;-67
2022/06/23 05:55:04;;;;;;;25.98;11.48;;;21.00;99.90;;;;;;5069926;28;20779;-66
2022/06/23 05:57:38;;;;;;;24.75;12.07;;;21.10;99.90;;;;;;5067743;28;20028;-67
2022/06/23 06:00:07;;;;;;;27.98;12.55;;;21.10;99.90;;;;;;5068482;28;20690;-66
2022/06/23 06:02:58;;;;;;;29.35;13.07;;;21.10;99.90;;;;;;5068532;28;20046;-67
2022/06/23 06:05:27;;;;;;;29.67;14.15;;;21.10;99.90;;;;;;5069958;28;20663;-67
2022/06/23 06:07:54;;;;;;;27.27;14.38;;;21.20;99.90;;;;;;5071666;28;20506;-66
2022/06/23 06:10:24;;;;;;;36.85;15.57;;;21.20;99.90;;;;;;5068430;28;20719;-67
2022/06/23 06:12:51;;;;;;;35.75;14.27;;;21.50;99.90;;;;;;5077971;28;20016;-67
2022/06/23 06:15:27;;;;;;;31.05;14.27;;;21.60;99.90;;;;;;5089742;28;20473;-68
2022/06/23 06:18:18;;;;;;;33.88;13.55;;;21.60;99.90;;;;;;5071340;28;20048;-67
2022/06/23 06:20:44;;;;;;;30.88;14.02;;;21.70;99.90;;;;;;5074689;28;20051;-67
2022/06/23 06:23:38;;;;;;;34.83;13.90;;;21.90;99.90;;;;;;5069552;28;20132;-67
2022/06/23 06:26:05;;;;;;;38.17;15.07;;;21.90;99.90;;;;;;5048887;28;20032;-67
2022/06/23 06:28:33;;;;;;;32.17;13.75;;;21.70;99.90;;;;;;5028262;28;1140873;-67
2022/06/23 06:31:23;;;;;;;33.03;14.65;;;21.60;99.90;;;;;;5072333;28;20495;-68
2022/06/23 06:34:34;;;;;;;32.00;13.35;;;21.60;99.90;;;;;;5080605;28;20234;-67
2022/06/23 06:37:00;;;;;;;39.17;12.40;;;21.80;99.90;;;;;;5072181;28;20464;-68
2022/06/23 06:39:25;;;;;;;32.08;12.43;;;22.10;99.90;;;;;;5069602;28;20082;-68
2022/06/23 06:41:57;;;;;;;34.70;14.13;;;22.20;99.90;;;;;;5069018;28;20477;-68
2022/06/23 06:44:23;;;;;;;29.98;14.13;;;22.20;99.90;;;;;;5070400;28;20029;-68
2022/06/23 06:46:49;;;;;;;33.00;13.50;;;22.30;99.90;;;;;;5077219;28;20024;-68
2022/06/23 06:49:22;;;;;;;31.67;13.55;;;22.30;99.90;;;;;;5090403;28;20036;-68
2022/06/23 06:51:50;;;;;;;31.85;12.80;;;22.40;99.90;;;;;;5089309;28;20032;-68
2022/06/23 06:54:24;;;;;;;28.40;13.13;;;22.60;99.90;;;;;;5075281;28;20416;-68
2022/06/23 06:56:54;;;;;;;30.60;12.82;;;22.70;99.90;;;;;;5072905;28;20034;-68
2022/06/23 06:59:37;;;;;;;24.70;11.90;;;22.80;99.90;;;;;;5071960;28;20048;-68
2022/06/23 07:02:17;;;;;;;30.90;13.38;;;22.90;99.90;;;;;;5068988;28;20044;-68
2022/06/23 07:04:51;;;;;;;;;;;23.00;99.90;;;;;;5069576;28;20044;-69
2022/06/23 07:07:37;;;;;;;29.27;12.50;;;23.20;99.90;;;;;;5081547;28;19957;-69
2022/06/23 07:10:16;;;;;;;28.25;10.60;;;23.30;99.90;;;;;;5089950;28;20032;-69
2022/06/23 07:12:58;;;;;;;27.05;12.02;;;23.40;99.90;;;;;;5073798;28;20037;-69
2022/06/23 07:15:38;;;;;;;32.75;12.52;;;23.90;99.90;;;;;;5070258;28;20033;-70
2022/06/23 07:18:09;;;;;;;33.55;12.27;;;23.70;99.90;;;;;;5083025;28;20480;-69
2022/06/23 07:21:00;;;;;;;25.52;10.98;;;23.50;99.90;;;;;;5067957;28;20052;-69
2022/06/23 07:23:40;;;;;;;28.27;11.75;;;23.80;99.90;;;;;;5058494;28;20392;-69
2022/06/23 07:26:25;;;;;;;28.42;10.25;;;24.00;99.90;;;;;;5073840;28;20031;-69
2022/06/23 07:28:55;;;;;;;27.40;10.18;;;24.20;99.90;;;;;;5071085;28;20106;-70
2022/06/23 07:31:41;;;;;;;23.50;10.68;;;24.40;99.90;;;;;;5068610;28;20048;-70
2022/06/23 07:34:11;;;;;;;29.25;11.00;;;24.90;99.90;;;;;;5068671;28;20369;-69
2022/06/23 07:36:47;;;;;;;26.95;10.48;;;24.80;99.90;;;;;;5068007;28;20465;-69
2022/06/23 07:39:22;;;;;;;25.38;10.50;;;25.00;99.90;;;;;;5069299;28;20132;-69
2022/06/23 07:41:59;;;;;;;28.20;10.25;;;25.00;99.90;;;;;;5067545;28;20387;-69
2022/06/23 07:44:37;;;;;;;26.73;9.98;;;24.70;99.90;;;;;;5069189;28;20112;-69
2022/06/23 07:47:03;;;;;;;21.42;9.50;;;24.30;99.90;;;;;;5069697;28;20031;-70
2022/06/23 07:49:32;;;;;;;32.50;10.23;;;24.00;99.90;;;;;;5068511;28;20101;-69
2022/06/23 07:51:58;;;;;;;29.08;10.65;;;23.80;99.90;;;;;;5067970;28;20041;-69
2022/06/23 07:54:25;;;;;;;30.60;12.32;;;23.80;99.90;;;;;;5068248;28;20190;-69
2022/06/23 07:56:52;;;;;;;34.35;11.45;;;23.70;99.90;;;;;;5083269;28;20035;-70
2022/06/23 07:59:23;;;;;;;31.85;10.02;;;23.90;99.90;;;;;;5068534;28;20041;-69
2022/06/23 08:01:51;;;;;;;23.83;10.23;;;24.00;99.90;;;;;;5067681;28;20037;-69
2022/06/23 08:05:03;;;;;;;27.95;10.35;;;24.10;99.90;;;;;;5068665;28;20044;-69
2022/06/23 08:07:30;;;;;;;26.02;10.27;;;24.40;99.90;;;;;;5051131;28;20045;-69
2022/06/23 08:10:00;;;;;;;23.92;9.88;;;24.30;99.90;;;;;;5067346;28;20054;-69
2022/06/23 08:18:37;;;;;;;21.02;9.52;;;23.80;99.90;;;;;;5088298;28;20047;-69
2022/06/23 08:21:35;;;;;;;28.25;10.40;;;23.70;99.90;;;;;;5077227;28;20033;-69
2022/06/23 08:24:07;;;;;;;29.95;10.70;;;23.60;99.90;;;;;;5061143;28;20119;-69
2022/06/23 08:26:36;;;;;;;28.15;10.50;;;23.70;99.90;;;;;;5067967;28;20036;-70
2022/06/23 08:29:06;;;;;;;24.83;9.52;;;23.90;99.90;;;;;;5066672;28;20053;-69
2022/06/23 08:31:32;;;;;;;31.87;9.83;;;24.00;99.90;;;;;;5072903;28;20030;-69
2022/06/23 08:34:00;;;;;;;22.10;8.82;;;24.10;99.90;;;;;;5079703;28;20012;-69
2022/06/23 08:36:46;;;;;;;27.77;10.77;;;23.90;99.90;;;;;;5077999;28;20040;-69
2022/06/23 08:39:26;;;;;;;22.05;9.32;;;23.80;99.90;;;;;;5067898;28;20028;-69
2022/06/23 08:42:00;;;;;;;20.70;8.68;;;23.80;99.90;;;;;;5065649;28;20039;-69
2022/06/23 08:45:05;;;;;;;23.23;9.40;;;24.20;99.90;;;;;;5068438;28;20389;-69
2022/06/23 08:47:49;;;;;;;19.25;8.90;;;24.70;99.90;;;;;;5069371;28;20108;-69
2022/06/23 08:50:23;;;;;;;25.60;10.57;;;24.90;99.90;;;;;;5067276;28;20828;-69
2022/06/23 08:53:15;;;;;;;25.75;9.02;;;24.90;99.90;;;;;;5068671;28;20103;-69
2022/06/23 08:56:00;;;;;;;24.17;9.43;;;25.00;99.90;;;;;;5070394;28;20097;-69
2022/06/23 08:58:29;;;;;;;26.58;8.57;;;25.20;99.90;;;;;;5067860;28;20051;-69
2022/06/23 09:01:17;;;;;;;18.80;8.52;;;25.40;99.90;;;;;;5066982;28;20119;-69
2022/06/23 09:04:09;;;;;;;30.23;10.77;;;25.60;99.90;;;;;;5067524;28;20040;-69
2022/06/23 09:06:54;;;;;;;34.75;10.35;;;25.60;99.90;;;;;;5068479;28;20032;-69
2022/06/23 09:09:27;;;;;;;31.48;10.73;;;25.60;99.90;;;;;;5068408;28;20040;-69
2022/06/23 09:12:20;;;;;;;25.52;11.05;;;25.70;99.90;;;;;;5070651;28;20028;-70
2022/06/23 09:15:04;;;;;;;26.52;10.05;;;25.50;99.90;;;;;;5068375;28;20094;-70
2022/06/23 09:17:39;;;;;;;30.10;12.55;;;25.60;99.90;;;;;;5067745;28;20044;-71
2022/06/23 09:20:10;;;;;;;28.65;10.93;;;25.50;99.90;;;;;;5065805;28;20054;-69
2022/06/23 09:22:42;;;;;;;29.80;13.52;;;25.10;99.90;;;;;;5086460;28;20032;-71
2022/06/23 09:25:26;;;;;;;28.50;12.20;;;25.30;99.90;;;;;;5073714;28;20078;-70
2022/06/23 09:28:15;;;;;;;32.95;14.00;;;25.30;99.90;;;;;;5070729;28;20081;-71
2022/06/23 09:31:17;;;;;;;36.70;13.80;;;25.50;99.90;;;;;;5076090;28;20060;-70
2022/06/23 09:33:46;;;;;;;28.30;13.60;;;25.50;99.90;;;;;;5070253;28;20119;-69
2022/06/23 09:36:49;;;;;;;39.70;14.50;;;25.40;99.90;;;;;;5070673;28;20086;-71
2022/06/23 09:39:33;;;;;;;25.83;12.57;;;25.50;99.90;;;;;;5070048;28;20041;-70
2022/06/23 09:42:08;;;;;;;26.23;12.80;;;25.40;99.90;;;;;;5074478;28;20036;-72
2022/06/23 09:45:16;;;;;;;27.15;12.38;;;25.20;99.90;;;;;;5074568;28;20033;-71
2022/06/23 09:47:57;;;;;;;23.92;12.02;;;25.30;99.90;;;;;;5089127;28;20028;-69
2022/06/23 09:50:25;;;;;;;23.52;11.88;;;25.50;99.90;;;;;;5091817;28;20062;-69
2022/06/23 09:53:06;;;;;;;25.33;11.52;;;25.80;99.90;;;;;;5090446;28;20095;-70
2022/06/23 09:56:14;;;;;;;27.75;12.45;;;25.90;99.90;;;;;;5089072;28;20158;-70
2022/06/23 09:58:58;;;;;;;22.80;10.30;;;26.30;99.90;;;;;;5080064;28;20052;-70
2022/06/23 10:01:55;;;;;;;20.50;8.73;;;26.50;99.90;;;;;;5101086;28;20096;-70
2022/06/23 10:04:26;;;;;;;17.73;8.57;;;26.40;99.90;;;;;;5111723;28;20092;-70
2022/06/23 10:07:18;;;;;;;23.10;9.77;;;26.70;99.90;;;;;;5078909;28;20028;-70
2022/06/23 10:10:24;;;;;;;20.58;10.43;;;26.90;99.90;;;;;;5074132;28;20086;-70
2022/06/23 10:13:13;;;;;;;21.80;9.07;;;27.00;99.90;;;;;;5074657;28;20044;-69
2022/06/23 10:16:00;;;;;;;25.67;10.80;;;27.20;99.90;;;;;;5088421;28;20472;-70
2022/06/23 10:19:12;;;;;;;22.65;10.63;;;27.40;99.90;;;;;;5070722;28;20105;-70
2022/06/23 10:22:12;;;;;;;22.00;11.30;;;27.30;99.90;;;;;;5081776;28;20040;-70
2022/06/23 10:24:56;;;;;;;19.67;9.18;;;27.40;99.90;;;;;;5085588;28;20036;-70
2022/06/23 10:27:28;;;;;;;21.63;9.23;;;27.30;99.90;;;;;;5070024;28;20025;-70
2022/06/23 10:30:03;;;;;;;22.92;9.98;;;27.40;99.90;;;;;;5069274;28;20859;-70
2022/06/23 10:33:00;;;;;;;20.48;9.95;;;27.50;99.90;;;;;;5069498;28;20033;-70
2022/06/23 10:35:53;;;;;;;25.88;10.88;;;27.30;99.90;;;;;;5064980;28;21818;-70
2022/06/23 10:38:57;;;;;;;20.73;10.65;;;27.70;99.90;;;;;;5072290;28;20404;-70
2022/06/23 10:41:36;;;;;;;22.77;10.55;;;28.10;99.90;;;;;;5069888;28;20115;-71
2022/06/23 10:44:20;;;;;;;32.10;9.77;;;28.30;99.90;;;;;;5069239;28;20021;-70
2022/06/23 10:47:03;;;;;;;20.67;9.40;;;28.50;99.90;;;;;;5070803;28;20082;-70
2022/06/23 10:49:28;;;;;;;25.15;11.20;;;28.70;99.90;;;;;;5069675;28;20115;-70
2022/06/23 10:52:29;;;;;;;19.98;11.35;;;28.80;99.90;;;;;;5069515;28;20131;-69
2022/06/23 10:55:23;;;;;;;26.00;12.18;;;28.30;99.90;;;;;;5063227;28;20719;-69
2022/06/23 10:58:20;;;;;;;26.60;12.00;;;28.30;99.90;;;;;;5068446;28;20037;-70
2022/06/23 11:00:55;;;;;;;30.48;13.07;;;28.10;99.90;;;;;;5069333;28;20041;-70
2022/06/23 11:03:32;;;;;;;24.02;11.68;;;28.00;99.90;;;;;;5069891;28;20074;-70
2022/06/23 11:06:13;;;;;;;29.63;11.38;;;28.10;99.90;;;;;;5067861;28;20181;-69
2022/06/23 11:08:58;;;;;;;22.58;12.18;;;28.20;99.90;;;;;;5077997;28;20044;-70
2022/06/23 11:11:52;;;;;;;26.38;12.73;;;28.40;99.90;;;;;;5089898;28;20114;-70
2022/06/23 11:14:18;;;;;;;30.70;12.50;;;28.30;99.90;;;;;;5110303;28;20108;-70
2022/06/23 11:16:52;;;;;;;22.48;11.98;;;28.60;99.90;;;;;;5084935;28;20536;-70
2022/06/23 11:19:49;;;;;;;23.70;11.88;;;29.00;99.90;;;;;;5069319;28;20044;-70
2022/06/23 11:22:17;;;;;;;23.50;10.75;;;29.30;99.90;;;;;;5070074;28;20448;-70
2022/06/23 11:25:04;;;;;;;19.20;10.88;;;29.10;99.90;;;;;;5084254;28;20032;-71
2022/06/23 11:27:39;;;;;;;21.85;11.25;;;28.70;99.90;;;;;;5068935;28;20063;-69
2022/06/23 11:30:29;;;;;;;20.75;10.50;;;28.30;99.90;;;;;;5068097;28;20670;-69
2022/06/23 11:33:10;;;;;;;;;;;28.50;99.90;;;;;;5068861;28;20041;-69
2022/06/23 11:35:59;;;;;;;27.17;10.57;;;28.60;99.80;;;;;;5069443;28;19916;-70
2022/06/23 11:38:58;;;;;;;21.90;10.77;;;28.90;99.90;;;;;;5068894;28;20051;-69
2022/06/23 11:41:47;;;;;;;20.15;10.52;;;29.20;99.90;;;;;;5068679;28;20037;-69
2022/06/23 11:44:28;;;;;;;19.13;9.68;;;29.20;99.90;;;;;;5069044;28;20052;-69
2022/06/23 11:47:00;;;;;;;18.27;9.32;;;29.50;99.90;;;;;;5067889;28;20107;-70
2022/06/23 11:49:38;;;;;;;18.77;8.70;;;29.70;98.30;;;;;;5069015;28;20044;-70
2022/06/23 11:52:28;;;;;;;17.88;9.10;;;29.70;99.60;;;;;;5067881;28;20060;-69
2022/06/23 11:55:13;;;;;;;18.55;8.68;;;29.90;99.00;;;;;;5067963;28;20036;-69
2022/06/23 11:57:57;;;;;;;18.52;8.90;;;30.20;97.00;;;;;;5068387;28;20074;-70
2022/06/23 12:00:39;;;;;;;15.65;8.40;;;30.20;95.60;;;;;;5068533;28;20041;-70
2022/06/23 12:03:42;;;;;;;19.45;8.65;;;29.80;96.80;;;;;;5067349;28;20028;-70
2022/06/23 12:06:13;;;;;;;22.90;8.43;;;30.00;97.00;;;;;;5067870;28;20427;-70
2022/06/23 12:09:14;;;;;;;20.13;8.50;;;29.80;95.40;;;;;;5068389;28;20111;-70
2022/06/23 12:11:40;;;;;;;14.05;7.63;;;29.50;95.40;;;;;;5071759;28;20035;-69
2022/06/23 12:14:07;;;;;;;16.70;7.13;;;29.40;97.00;;;;;;5073945;28;20033;-69
2022/06/23 12:16:40;;;;;;;17.52;7.57;;;29.60;94.80;;;;;;5078007;28;20037;-69
2022/06/23 12:19:11;;;;;;;16.67;7.43;;;29.70;94.50;;;;;;5068258;28;20041;-69
2022/06/23 12:21:54;;;;;;;18.30;6.68;;;29.90;92.80;;;;;;5072526;28;20389;-69
2022/06/23 12:24:32;;;;;;;18.15;6.00;;;29.40;92.00;;;;;;5068767;28;20031;-69
2022/06/23 12:27:02;;;;;;;15.27;5.90;;;29.50;95.70;;;;;;5083107;28;20040;-69
2022/06/23 12:29:50;;;;;;;18.50;6.82;;;30.00;93.10;;;;;;5068283;28;20056;-70
2022/06/23 12:32:31;;;;;;;13.52;6.28;;;30.30;92.10;;;;;;5081981;28;20067;-69
2022/06/23 12:35:18;;;;;;;22.30;6.47;;;30.40;93.00;;;;;;5067374;28;20024;-69
2022/06/23 12:37:47;;;;;;;14.00;6.25;;;30.70;92.60;;;;;;5067817;28;20032;-69
2022/06/23 12:40:18;;;;;;;16.42;6.05;;;30.70;90.60;;;;;;5098711;28;20567;-69
2022/06/23 12:42:55;;;;;;;14.20;6.43;;;30.70;89.50;;;;;;5067935;28;20078;-70
2022/06/23 12:45:59;;;;;;;12.65;6.00;;;30.50;90.20;;;;;;5069051;28;20123;-69
2022/06/23 12:48:42;;;;;;;20.98;6.05;;;30.70;90.80;;;;;;5068012;28;20048;-70
2022/06/23 12:51:56;;;;;;;16.10;6.03;;;30.70;89.60;;;;;;5067953;28;20078;-69
2022/06/23 12:54:43;;;;;;;13.40;5.70;;;30.60;84.50;;;;;;5063066;28;20500;-69
2022/06/23 12:57:16;;;;;;;17.08;5.72;;;30.70;88.00;;;;;;5072554;28;20052;-69
2022/06/23 13:00:12;;;;;;;16.90;4.85;;;30.60;86.40;;;;;;5072283;28;20040;-69
2022/06/23 13:02:43;;;;;;;13.75;5.50;;;30.50;87.00;;;;;;5070849;28;20666;-70
2022/06/23 13:05:32;;;;;;;12.10;5.20;;;30.50;90.00;;;;;;5070869;28;20028;-69
2022/06/23 13:08:05;;;;;;;15.48;5.03;;;30.70;88.60;;;;;;5071524;28;20186;-70
2022/06/23 13:10:45;;;;;;;12.98;4.88;;;30.90;87.90;;;;;;5073279;28;20079;-70
2022/06/23 13:13:20;;;;;;;14.77;4.50;;;30.90;83.30;;;;;;5070799;28;20058;-70
2022/06/23 13:16:04;;;;;;;12.65;4.45;;;30.80;86.40;;;;;;5072516;28;20074;-70
2022/06/23 13:18:35;;;;;;;11.88;3.45;;;30.60;84.10;;;;;;5071886;28;20079;-70
2022/06/23 13:21:26;;;;;;;15.30;3.67;;;30.70;85.20;;;;;;5076995;28;20031;-69
2022/06/23 13:23:54;;;;;;;9.65;3.17;;;30.80;83.60;;;;;;5079705;28;20086;-70
2022/06/23 13:26:29;;;;;;;10.80;3.33;;;30.70;85.90;;;;;;5070812;28;20028;-69
2022/06/23 13:29:16;;;;;;;17.42;3.58;;;31.00;80.00;;;;;;5073584;28;20133;-69
2022/06/23 13:31:50;;;;;;;8.57;3.00;;;31.00;80.10;;;;;;5081607;28;20033;-69
2022/06/23 13:34:27;;;;;;;12.02;3.08;;;30.90;85.00;;;;;;5070801;28;20099;-69
2022/06/23 13:37:10;;;;;;;14.98;3.50;;;30.70;83.20;;;;;;5071088;28;20037;-70
2022/06/23 13:40:29;;;;;;;12.10;2.58;;;30.40;82.00;;;;;;5071285;28;20133;-69
2022/06/23 13:43:18;;;;;;;14.20;2.70;;;30.60;83.30;;;;;;5028313;28;20604;-69
2022/06/23 13:46:07;;;;;;;15.70;2.83;;;30.80;78.30;;;;;;5068599;28;20040;-69
2022/06/23 13:48:55;;;;;;;11.18;2.97;;;30.70;79.40;;;;;;5061444;28;20102;-69
2022/06/23 13:51:44;;;;;;;8.35;2.60;;;30.50;78.70;;;;;;5078130;28;20027;-69